AGGH

Honiara International Airport

Honiara, Solomon Islands
METAR AGGH 172200Z 11002KT 9999 HZ FEW018 28/24 Q1011
Observed Flight Rules
Jul-17 @ 22:00 UTC (58 minutes ago) Visual Flight Rules
Wind Visibility Clouds Conditions
110° at 2 knots 10,000+ meters
  • Few at 1,800' AGL
  • Haze
Temperatures Readings
Current 28°C / 82°F
Dewpoint 24°C / 75°F
Humidity 79%
Altimeter 29.85" Hg
Pressure 1011 hPa
Elevation 9
METAR AGGH 172200Z 11002KT 9999 HZ FEW018 28/24 Q1011
Observed Flight Rules
Jul-17 @ 22:00 UTC
(58 minutes ago)
VFR
Wind Visibility
110° at 2 knots 10,000+ meters
Clouds
  • Few at 1,800' AGL
Conditions
  • Haze
Temperature Dewpoint
28°C / 82°F 24°C / 75°F
Humidity Altimeter Pressure
79% 29.85" Hg 1011 hPa